createdAt,value
2022-09-04T00:02:18.574Z,1.92
2022-09-04T00:04:59.809Z,2.05
2022-09-04T00:07:34.798Z,2.00
2022-09-04T00:10:15.173Z,1.90
2022-09-04T00:12:52.076Z,2.15
2022-09-04T00:15:26.795Z,2.00
2022-09-04T00:18:03.834Z,2.00
2022-09-04T00:20:42.393Z,2.15
2022-09-04T00:23:21.155Z,2.00
2022-09-04T00:26:01.125Z,2.10
2022-09-04T00:28:39.244Z,2.05
2022-09-04T00:31:25.766Z,2.30
2022-09-04T00:34:07.265Z,1.90
2022-09-04T00:36:43.362Z,1.80
2022-09-04T00:39:19.550Z,2.20
2022-09-04T00:42:11.014Z,1.67
2022-09-04T00:45:07.464Z,1.85
2022-09-04T00:48:20.225Z,1.60
2022-09-04T00:51:33.193Z,1.90
2022-09-04T00:54:48.588Z,2.10
2022-09-04T00:58:00.847Z,2.25
2022-09-04T01:00:30.775Z,2.00
2022-09-04T01:03:33.786Z,2.30
2022-09-04T01:06:21.196Z,2.38
2022-09-04T01:09:15.044Z,1.90
2022-09-04T01:12:01.063Z,2.28
2022-09-04T01:14:41.217Z,2.20
2022-09-04T01:17:25.875Z,2.00
2022-09-04T01:20:01.501Z,2.25
2022-09-04T01:23:11.211Z,2.13
2022-09-04T01:26:09.753Z,2.05
2022-09-04T01:28:54.139Z,2.00
2022-09-04T01:31:32.961Z,2.08
2022-09-04T01:34:17.942Z,1.60
2022-09-04T01:36:57.082Z,1.80
2022-09-04T01:39:31.761Z,2.10
2022-09-04T01:42:09.626Z,1.90
2022-09-04T01:44:38.082Z,1.75
2022-09-04T01:47:17.643Z,2.35
2022-09-04T01:49:52.222Z,2.30
2022-09-04T01:52:40.332Z,1.98
2022-09-04T01:55:26.797Z,2.20
2022-09-04T01:58:17.089Z,1.98
2022-09-04T02:00:59.785Z,2.03
2022-09-04T02:03:51.890Z,1.95
2022-09-04T02:06:33.990Z,1.95
2022-09-04T02:09:20.266Z,2.00
2022-09-04T02:11:56.951Z,2.00
2022-09-04T02:14:40.069Z,2.15
2022-09-04T02:17:18.331Z,1.90
2022-09-04T02:20:13.221Z,1.90
2022-09-04T02:22:55.673Z,2.28
2022-09-04T02:25:31.951Z,1.83
2022-09-04T02:28:23.900Z,2.20
2022-09-04T02:31:06.168Z,1.80
2022-09-04T02:33:41.444Z,2.25
2022-09-04T02:36:19.595Z,1.98
2022-09-04T02:39:03.473Z,2.30
2022-09-04T02:41:42.679Z,2.13
2022-09-04T02:44:36.624Z,1.70
2022-09-04T02:47:20.375Z,2.10
2022-09-04T02:50:01.571Z,2.40
2022-09-04T02:53:01.823Z,1.95
2022-09-04T02:55:57.589Z,2.10
2022-09-04T02:58:44.047Z,2.15
2022-09-04T03:01:22.354Z,2.03
2022-09-04T03:04:05.811Z,2.13
2022-09-04T03:06:57.125Z,2.10
2022-09-04T03:09:33.264Z,1.90
2022-09-04T03:12:16.329Z,2.00
2022-09-04T03:14:52.634Z,1.73
2022-09-04T03:17:28.714Z,2.17
2022-09-04T03:20:08.578Z,2.08
2022-09-04T03:22:48.391Z,1.90
2022-09-04T03:25:57.905Z,2.22
2022-09-04T03:28:46.982Z,2.08
2022-09-04T03:31:29.165Z,2.25
2022-09-04T03:34:16.618Z,2.17
2022-09-04T03:37:03.436Z,2.20
2022-09-04T03:39:42.399Z,2.10
2022-09-04T03:42:26.212Z,2.50
2022-09-04T03:45:08.998Z,2.40
2022-09-04T03:47:49.878Z,2.38
2022-09-04T03:50:31.166Z,2.33
2022-09-04T03:53:15.039Z,2.50
2022-09-04T03:56:37.777Z,2.42
2022-09-04T03:59:09.506Z,2.50
2022-09-04T04:01:57.911Z,2.38
2022-09-04T04:05:13.122Z,2.25
2022-09-04T04:07:59.542Z,2.90
2022-09-04T04:10:45.233Z,2.25
2022-09-04T04:14:05.242Z,2.45
2022-09-04T04:16:55.791Z,2.28
2022-09-04T04:19:50.314Z,2.33
2022-09-04T04:22:52.342Z,2.40
2022-09-04T04:25:52.682Z,2.45
2022-09-04T04:28:49.226Z,2.60
2022-09-04T04:31:27.054Z,2.40
2022-09-04T04:34:08.143Z,2.38
2022-09-04T04:36:49.477Z,2.67
2022-09-04T04:39:30.422Z,2.25
2022-09-04T04:42:18.368Z,2.40
2022-09-04T04:45:37.053Z,2.33
2022-09-04T04:48:50.438Z,2.60
2022-09-04T04:51:48.888Z,2.38
2022-09-04T04:54:40.966Z,2.70
2022-09-04T04:57:33.453Z,2.60
2022-09-04T05:00:16.070Z,2.75
2022-09-04T05:03:00.681Z,2.72
2022-09-04T05:05:57.656Z,2.30
2022-09-04T05:08:41.688Z,2.38
2022-09-04T05:11:24.640Z,2.63
2022-09-04T05:14:07.834Z,2.67
2022-09-04T05:16:54.853Z,2.40
2022-09-04T05:19:34.018Z,2.75
2022-09-04T05:22:13.482Z,2.40
2022-09-04T05:24:56.056Z,2.30
2022-09-04T05:27:52.874Z,2.72
2022-09-04T05:30:36.314Z,2.70
2022-09-04T05:33:16.924Z,2.85
2022-09-04T05:35:54.187Z,2.63
2022-09-04T05:38:33.697Z,3.10
2022-09-04T05:41:08.411Z,2.90
2022-09-04T05:44:01.478Z,2.80
2022-09-04T05:46:52.075Z,2.63
2022-09-04T05:49:43.516Z,3.10
2022-09-04T05:52:56.872Z,2.75
2022-09-04T05:56:34.966Z,2.58
2022-09-04T05:59:31.849Z,2.85
2022-09-04T06:02:31.323Z,2.60
2022-09-04T06:05:30.534Z,2.58
2022-09-04T06:08:16.958Z,2.70
2022-09-04T06:11:02.065Z,3.20
2022-09-04T06:13:56.105Z,2.83
2022-09-04T06:17:12.753Z,3.17
2022-09-04T06:20:00.565Z,2.70
2022-09-04T06:22:55.557Z,3.13
2022-09-04T06:25:58.740Z,2.85
2022-09-04T06:28:59.095Z,3.25
2022-09-04T06:32:06.107Z,3.08
2022-09-04T06:35:24.773Z,2.67
2022-09-04T06:38:14.027Z,2.65
2022-09-04T06:41:02.113Z,2.95
2022-09-04T06:43:42.180Z,2.67
2022-09-04T06:46:50.880Z,2.67
2022-09-04T06:49:29.329Z,3.08
2022-09-04T06:52:16.690Z,2.90
2022-09-04T06:54:59.317Z,3.08
2022-09-04T06:57:52.898Z,3.35
2022-09-04T07:00:21.751Z,3.22
2022-09-04T07:03:28.637Z,2.92
2022-09-04T07:06:09.434Z,3.22
2022-09-04T07:09:00.705Z,2.70
2022-09-04T07:11:58.258Z,3.10
2022-09-04T07:14:46.369Z,3.22
2022-09-04T07:17:25.233Z,3.03
2022-09-04T07:20:12.822Z,3.22
2022-09-04T07:23:11.923Z,2.97
2022-09-04T07:25:50.260Z,2.95
2022-09-04T07:28:47.221Z,3.45
2022-09-04T07:31:26.736Z,2.72
2022-09-04T07:34:10.182Z,3.20
2022-09-04T07:36:50.291Z,2.80
2022-09-04T07:39:33.925Z,3.17
2022-09-04T07:42:15.757Z,3.30
2022-09-04T07:44:54.566Z,3.20
2022-09-04T07:47:35.294Z,3.42
2022-09-04T07:50:46.024Z,3.40
2022-09-04T07:53:32.241Z,2.78
2022-09-04T07:56:05.494Z,2.80
2022-09-04T07:58:58.467Z,2.90
2022-09-04T08:01:50.193Z,3.22
2022-09-04T08:05:02.335Z,3.10
2022-09-04T08:08:03.708Z,2.45
2022-09-04T08:10:42.220Z,2.60
2022-09-04T08:13:33.525Z,2.25
2022-09-04T08:16:09.116Z,2.63
2022-09-04T08:19:03.231Z,2.83
2022-09-04T08:21:36.605Z,3.03
2022-09-04T08:24:53.165Z,2.42
2022-09-04T08:27:47.550Z,2.72
2022-09-04T08:30:20.750Z,2.85
2022-09-04T08:33:40.842Z,2.30
2022-09-04T08:36:25.119Z,3.17
2022-09-04T08:39:12.573Z,3.17
2022-09-04T08:42:25.013Z,2.80
2022-09-04T08:45:42.264Z,2.85
2022-09-04T08:48:59.470Z,2.42
2022-09-04T08:52:21.530Z,2.67
2022-09-04T08:55:40.947Z,2.33
2022-09-04T08:58:56.417Z,3.20
2022-09-04T09:02:19.418Z,2.58
2022-09-04T09:05:32.611Z,3.15
2022-09-04T09:08:28.581Z,3.15
2022-09-04T09:12:11.387Z,3.05
2022-09-04T09:15:49.959Z,3.30
2022-09-04T09:18:37.300Z,2.78
2022-09-04T09:21:22.010Z,2.70
2022-09-04T09:24:51.414Z,3.35
2022-09-04T09:28:12.162Z,3.17
2022-09-04T09:31:24.894Z,3.10
2022-09-04T09:34:49.939Z,2.92
2022-09-04T09:38:03.759Z,2.58
2022-09-04T09:41:20.065Z,2.95
2022-09-04T09:44:31.435Z,3.00
2022-09-04T09:47:42.121Z,3.05
2022-09-04T09:50:56.049Z,2.92
2022-09-04T09:54:37.751Z,3.05
2022-09-04T09:58:30.734Z,3.03
2022-09-04T10:01:19.428Z,3.38
2022-09-04T10:04:28.653Z,3.13
2022-09-04T10:08:04.166Z,2.53
2022-09-04T10:11:03.882Z,3.08
2022-09-04T10:14:25.327Z,3.03
2022-09-04T10:17:42.377Z,3.22
2022-09-04T10:20:55.459Z,3.00
2022-09-04T10:24:02.931Z,2.67
2022-09-04T10:27:19.296Z,2.55
2022-09-04T10:30:07.581Z,2.55
2022-09-04T10:33:27.036Z,2.88
2022-09-04T10:36:17.390Z,2.90
2022-09-04T10:39:26.217Z,2.55
2022-09-04T10:42:13.064Z,2.40
2022-09-04T10:45:07.855Z,2.63
2022-09-04T10:48:00.900Z,2.47
2022-09-04T10:51:01.833Z,2.65
2022-09-04T10:54:26.473Z,2.42
2022-09-04T10:57:19.431Z,2.83
2022-09-04T11:00:07.693Z,2.85
2022-09-04T11:03:27.247Z,2.50
2022-09-04T11:06:37.234Z,2.20
2022-09-04T11:09:43.601Z,2.70
2022-09-04T11:12:49.105Z,2.40
2022-09-04T11:15:41.780Z,2.40
2022-09-04T11:18:54.465Z,2.42
2022-09-04T11:22:25.760Z,2.53
2022-09-04T11:25:38.912Z,2.60
2022-09-04T11:28:47.389Z,3.05
2022-09-04T11:31:36.081Z,2.40
2022-09-04T11:34:55.459Z,2.03
2022-09-04T11:38:00.437Z,2.20
2022-09-04T11:41:24.438Z,2.70
2022-09-04T11:44:25.153Z,2.20
2022-09-04T11:47:43.182Z,2.03
2022-09-04T11:50:24.216Z,2.58
2022-09-04T11:53:22.641Z,3.22
2022-09-04T11:56:51.147Z,2.25
2022-09-04T12:00:00.077Z,2.38
2022-09-04T12:03:19.715Z,3.15
2022-09-04T12:06:18.633Z,2.78
2022-09-04T12:09:25.893Z,3.03
2022-09-04T12:12:41.643Z,2.50
2022-09-04T12:16:00.757Z,2.60
2022-09-04T12:19:24.150Z,2.25
2022-09-04T12:22:51.762Z,2.25
2022-09-04T12:25:54.470Z,2.20
2022-09-04T12:29:13.736Z,2.30
2022-09-04T12:32:30.007Z,2.50
2022-09-04T12:36:02.489Z,2.30
2022-09-04T12:39:03.533Z,2.58
2022-09-04T12:41:46.878Z,2.60
2022-09-04T12:44:35.197Z,2.40
2022-09-04T12:47:28.343Z,2.20
2022-09-04T12:50:28.026Z,2.40
2022-09-04T12:53:21.919Z,2.78
2022-09-04T12:56:05.686Z,2.60
2022-09-04T12:59:06.779Z,2.40
2022-09-04T13:01:59.286Z,2.38
2022-09-04T13:04:47.043Z,2.55
2022-09-04T13:07:40.947Z,2.70
2022-09-04T13:10:25.959Z,2.70
2022-09-04T13:13:08.056Z,2.72
2022-09-04T13:15:52.155Z,2.60
2022-09-04T13:18:44.650Z,2.78
2022-09-04T13:21:32.271Z,2.80
2022-09-04T13:24:19.379Z,2.70
2022-09-04T13:27:07.617Z,2.55
2022-09-04T13:30:02.863Z,2.60
2022-09-04T13:33:09.998Z,2.60
2022-09-04T13:36:16.453Z,2.95
2022-09-04T13:39:28.795Z,3.03
2022-09-04T13:42:39.578Z,2.47
2022-09-04T13:45:15.223Z,2.70
2022-09-04T13:47:54.265Z,2.38
2022-09-04T13:50:29.615Z,2.60
2022-09-04T13:53:05.281Z,2.58
2022-09-04T13:55:41.844Z,2.83
2022-09-04T13:58:19.963Z,2.78
2022-09-04T14:00:57.045Z,2.97
2022-09-04T14:03:37.121Z,2.70
2022-09-04T14:06:15.051Z,2.78
2022-09-04T14:08:45.888Z,2.50
2022-09-04T14:12:05.574Z,2.50
2022-09-04T14:15:14.698Z,2.70
2022-09-04T14:18:04.226Z,2.67
2022-09-04T14:20:43.681Z,2.72
2022-09-04T14:23:23.125Z,2.33
2022-09-04T14:25:57.959Z,2.63
2022-09-04T14:28:37.545Z,2.50
2022-09-04T14:31:20.995Z,2.65
2022-09-04T14:33:59.501Z,2.25
2022-09-04T14:36:41.491Z,2.50
2022-09-04T14:39:21.190Z,2.70
2022-09-04T14:42:13.727Z,2.45
2022-09-04T14:45:13.250Z,2.65
2022-09-04T14:47:47.278Z,2.35
2022-09-04T14:50:19.207Z,2.50
2022-09-04T14:52:53.300Z,2.38
2022-09-04T14:55:28.043Z,2.40
2022-09-04T14:58:06.361Z,2.40
2022-09-04T15:00:58.833Z,2.40
2022-09-04T15:03:35.268Z,2.40
2022-09-04T15:06:18.564Z,2.45
2022-09-04T15:08:51.478Z,2.30
2022-09-04T15:11:31.853Z,2.30
2022-09-04T15:14:21.698Z,2.47
2022-09-04T15:16:55.727Z,2.40
2022-09-04T15:19:46.555Z,2.50
2022-09-04T15:22:25.272Z,2.45
2022-09-04T15:25:09.682Z,2.50
2022-09-04T15:27:50.582Z,2.63
2022-09-04T15:30:32.261Z,2.95
2022-09-04T15:33:39.694Z,2.38
2022-09-04T15:36:46.311Z,2.70
2022-09-04T15:39:33.885Z,2.72
2022-09-04T15:42:46.783Z,2.70
2022-09-04T15:45:25.849Z,2.30
2022-09-04T15:48:47.994Z,2.45
2022-09-04T15:51:27.736Z,2.35
2022-09-04T15:54:26.975Z,2.55
2022-09-04T15:57:06.081Z,2.35
2022-09-04T15:59:49.552Z,2.50
2022-09-04T16:02:36.240Z,2.50
2022-09-04T16:05:23.551Z,2.80
2022-09-04T16:08:04.030Z,2.70
2022-09-04T16:10:53.384Z,2.40
2022-09-04T16:13:58.286Z,2.60
2022-09-04T16:16:35.450Z,2.72
2022-09-04T16:19:17.129Z,2.35
2022-09-04T16:21:59.800Z,2.78
2022-09-04T16:24:35.904Z,2.58
2022-09-04T16:27:11.204Z,2.65
2022-09-04T16:29:48.041Z,2.70
2022-09-04T16:32:23.293Z,2.40
2022-09-04T16:34:58.279Z,2.40
2022-09-04T16:37:35.990Z,2.35
2022-09-04T16:40:24.390Z,2.65
2022-09-04T16:42:59.942Z,2.40
2022-09-04T16:45:37.226Z,3.00
2022-09-04T16:48:33.846Z,2.70
2022-09-04T16:51:40.483Z,2.38
2022-09-04T16:54:10.620Z,2.30
2022-09-04T16:56:42.742Z,2.47
2022-09-04T16:59:23.525Z,2.55
2022-09-04T17:02:01.955Z,2.30
2022-09-04T17:04:40.249Z,2.75
2022-09-04T17:07:20.284Z,2.70
2022-09-04T17:10:03.552Z,2.13
2022-09-04T17:12:53.665Z,2.33
2022-09-04T17:15:31.956Z,2.42
2022-09-04T17:18:25.002Z,2.53
2022-09-04T17:25:05.736Z,2.35
2022-09-04T17:29:09.210Z,2.72
2022-09-04T17:29:13.596Z,2.40
2022-09-04T17:29:55.582Z,2.72
2022-09-04T17:36:31.410Z,2.45
2022-09-04T17:40:37.626Z,2.35
2022-09-04T17:40:55.963Z,2.20
2022-09-04T17:41:52.016Z,2.45
2022-09-04T17:44:47.205Z,2.42
2022-09-04T17:47:34.070Z,2.20
2022-09-04T17:50:03.264Z,2.38
2022-09-04T17:52:35.133Z,2.40
2022-09-04T17:55:08.521Z,2.42
2022-09-04T17:58:08.205Z,2.40
2022-09-04T18:01:14.617Z,2.22
2022-09-04T18:04:20.700Z,2.45
2022-09-04T18:07:00.342Z,2.53
2022-09-04T18:09:41.038Z,2.35
2022-09-04T18:12:21.330Z,2.47
2022-09-04T18:15:32.216Z,2.55
2022-09-04T18:18:09.621Z,2.50
2022-09-04T18:20:46.176Z,2.40
2022-09-04T18:23:51.203Z,2.70
2022-09-04T18:26:39.930Z,2.60
2022-09-04T18:31:55.773Z,2.60
2022-09-04T18:37:11.416Z,2.40
2022-09-04T18:37:20.119Z,2.58
2022-09-04T18:38:41.795Z,2.80
2022-09-04T18:47:00.312Z,2.72
2022-09-04T18:50:29.800Z,2.63
2022-09-04T18:50:37.750Z,2.50
2022-09-04T18:50:50.391Z,2.78
2022-09-04T18:53:18.575Z,2.40
2022-09-04T18:55:52.023Z,2.67
2022-09-04T18:58:48.756Z,2.25
2022-09-04T19:01:26.931Z,2.63
2022-09-04T19:04:01.730Z,2.40
2022-09-04T19:07:06.796Z,2.83
2022-09-04T19:10:05.400Z,2.53
2022-09-04T19:12:47.707Z,2.70
2022-09-04T19:15:50.920Z,3.15
2022-09-04T19:18:30.206Z,3.20
2022-09-04T19:21:35.678Z,3.50
2022-09-04T19:24:34.437Z,3.25
2022-09-04T19:27:33.860Z,3.40
2022-09-04T19:30:18.250Z,3.10
2022-09-04T19:33:12.801Z,3.00
2022-09-04T19:35:49.602Z,3.20
2022-09-04T19:45:53.509Z,2.72
2022-09-04T19:46:05.763Z,3.03
2022-09-04T19:46:16.094Z,3.20
2022-09-04T19:47:29.467Z,3.90
2022-09-04T19:53:17.517Z,3.65
2022-09-04T19:53:38.816Z,2.45
2022-09-04T19:56:26.844Z,2.78
2022-09-04T19:59:04.400Z,2.95
2022-09-04T20:01:46.117Z,2.78
2022-09-04T20:04:30.090Z,3.10
2022-09-04T20:07:04.234Z,2.80
2022-09-04T20:09:40.865Z,3.00
2022-09-04T20:12:21.730Z,3.05
2022-09-04T20:14:56.854Z,4.10
2022-09-04T20:18:09.946Z,3.63
2022-09-04T20:20:54.708Z,3.53
2022-09-04T20:23:34.569Z,3.33
2022-09-04T20:26:10.068Z,3.53
2022-09-04T20:28:51.140Z,3.38
2022-09-04T20:31:41.800Z,4.10
2022-09-04T20:34:34.810Z,3.60
2022-09-04T20:37:25.836Z,3.25
2022-09-04T20:40:05.994Z,3.38
2022-09-04T20:42:43.918Z,3.03
2022-09-04T20:50:25.868Z,3.38
2022-09-04T20:52:54.029Z,3.20
2022-09-04T20:53:00.572Z,3.28
2022-09-04T20:54:45.768Z,3.30
2022-09-04T21:03:11.376Z,2.95
2022-09-04T21:03:18.529Z,2.80
2022-09-04T21:03:29.447Z,3.45
2022-09-04T21:06:22.674Z,3.42
2022-09-04T21:09:07.481Z,3.25
2022-09-04T21:11:43.352Z,3.50
2022-09-04T21:14:22.187Z,3.33
2022-09-04T21:17:34.522Z,3.40
2022-09-04T21:21:00.652Z,3.10
2022-09-04T21:24:13.896Z,3.28
2022-09-04T21:27:32.008Z,3.60
2022-09-04T21:30:14.823Z,4.10
2022-09-04T21:33:26.831Z,3.50
2022-09-04T21:36:00.015Z,3.22
2022-09-04T21:39:03.480Z,3.25
2022-09-04T21:42:12.729Z,3.78
2022-09-04T21:45:22.128Z,3.88
2022-09-04T21:48:28.358Z,3.20
2022-09-04T21:51:31.815Z,3.60
2022-09-04T21:57:11.739Z,4.25
2022-09-04T22:02:27.023Z,4.68
2022-09-04T22:02:43.086Z,4.25
2022-09-04T22:04:47.095Z,4.20
2022-09-04T22:10:38.495Z,4.90
2022-09-04T22:13:38.499Z,4.35
2022-09-04T22:14:04.699Z,5.00
2022-09-04T22:17:13.151Z,4.50
2022-09-04T22:20:16.001Z,4.30
2022-09-04T22:23:56.931Z,4.10
2022-09-04T22:26:58.434Z,5.05
2022-09-04T22:29:50.108Z,4.50
2022-09-04T22:32:57.483Z,4.72
2022-09-04T22:36:17.864Z,3.70
2022-09-04T22:39:14.579Z,4.63
2022-09-04T22:42:29.159Z,4.75
2022-09-04T22:45:32.098Z,4.78
2022-09-04T22:48:28.154Z,4.53
2022-09-04T22:51:24.633Z,4.32
2022-09-04T22:54:29.743Z,4.32
2022-09-04T22:57:04.942Z,4.63
2022-09-04T23:00:09.354Z,4.50
2022-09-04T23:03:08.160Z,3.97
2022-09-04T23:10:34.021Z,4.25
2022-09-04T23:14:02.315Z,4.15
2022-09-04T23:14:02.317Z,4.65
2022-09-04T23:16:36.303Z,3.97
2022-09-04T23:26:30.867Z,4.57
2022-09-04T23:26:53.590Z,4.57
2022-09-04T23:27:09.351Z,4.63
2022-09-04T23:30:05.689Z,4.25
2022-09-04T23:33:28.060Z,4.68
2022-09-04T23:36:28.293Z,4.57
2022-09-04T23:39:53.070Z,4.63
2022-09-04T23:43:02.690Z,4.97
2022-09-04T23:46:24.934Z,4.30
2022-09-04T23:49:26.973Z,4.00
2022-09-04T23:52:05.094Z,4.40
2022-09-04T23:54:59.487Z,4.53
2022-09-04T23:57:38.550Z,4.60
